Jacana — WDG3702 — position and weather

sailwx.info

Track history (hours):
 
Tides and Currents Weather Stations Pressure Air Temp Water Temp Dewpoint Dewpoint Depression Visibility Wind Speed Wind Dir Waves Ship Positions

Jacana

Owner: Jacana Yacht LLC, Woodhaven, NY. More information available from US FCC via Universal Licensing System and Coast Guard Vessel Documentation Center.

Last reported at 2017-Dec-10 04:35 UTC. Time now 2017-Dec-12 10:34 UTC.
Position N 40°44' W 073°58'.

Length 20 m.

Type: Passenger vessel. MMSI: 367528810.

Date/timePositionNaut miles runAvg speedWind from/ knotsBaromVisibWave heightAir tempDewpointWater temp
2017-Dec-10 04:35N 40°44' W 073°58'0 0.1
2017-Dec-10 04:29N 40°44' W 073°58'0 0.0
2017-Dec-10 04:00N 40°44' W 073°58'0 0.4
2017-Dec-10 03:30N 40°44' W 073°58'3 6.2
2017-Dec-10 03:00N 40°42' W 074°01'1 2.5
2017-Dec-10 02:30N 40°42' W 074°02'3 5.6
2017-Dec-10 02:00N 40°44' W 074°01'1 2.7
2017-Dec-10 01:30N 40°43' W 074°01'1 2.3
2017-Dec-10 01:00N 40°42' W 073°60'2 4.0
2017-Dec-10 00:30N 40°44' W 073°58'0 0.0
2017-Dec-10 00:00N 40°44' W 073°58'0 0.0
2017-Dec-09 23:29N 40°44' W 073°58'  
2017-Dec-07 03:28N 40°44' W 073°58'1 2.5
2017-Dec-07 03:00N 40°43' W 073°58'1 1.9
2017-Dec-07 02:31N 40°42' W 073°59'3 5.5
2017-Dec-07 02:00N 40°41' W 074°03'2 3.0
2017-Dec-07 01:31N 40°43' W 074°02'1 2.6
2017-Dec-07 01:00N 40°42' W 074°00'2 3.2
2017-Dec-07 00:31N 40°43' W 073°58'1 2.3
2017-Dec-07 00:01N 40°44' W 073°58'0 0.0
2017-Dec-06 23:31N 40°44' W 073°58'0 0.0
2017-Dec-06 23:01N 40°44' W 073°58'  
2017-Dec-03 20:30N 40°44' W 073°58'0 0.0
2017-Dec-03 20:01N 40°44' W 073°58'1 2.4
2017-Dec-03 19:30N 40°43' W 073°58'2 4.2
2017-Dec-03 19:00N 40°42' W 074°01'1 1.7
2017-Dec-03 18:30N 40°42' W 074°02'0 0.9
2017-Dec-03 18:00N 40°41' W 074°02'4 7.5
2017-Dec-03 17:30N 40°44' W 073°58'0 0.0
2017-Dec-03 17:00N 40°44' W 073°58'0 0.0
2017-Dec-03 16:31N 40°44' W 073°58'0 0.0
2017-Dec-03 16:00N 40°44' W 073°58'0 0.0
2017-Dec-03 15:30N 40°44' W 073°58'0 0.0
2017-Dec-03 04:02N 40°44' W 073°58'0 0.0
2017-Dec-03 04:00N 40°44' W 073°58'0 0.0
2017-Dec-03 03:31N 40°44' W 073°58'1 2.5
2017-Dec-03 03:00N 40°43' W 073°58'2 4.2
2017-Dec-03 02:31N 40°42' W 074°01'1 2.2
2017-Dec-03 02:01N 40°42' W 074°02'0 0.8
2017-Dec-03 01:30N 40°41' W 074°03'3 5.4
2017-Dec-03 01:01N 40°43' W 073°59'2 3.5
2017-Dec-03 00:30N 40°44' W 073°58'0 0.0
2017-Dec-03 00:00N 40°44' W 073°58'0 0.0
2017-Dec-02 23:30N 40°44' W 073°58'  
Track history (hours):
 
Tides and Currents Weather Stations Pressure Air Temp Water Temp Dewpoint Dewpoint Depression Visibility Wind Speed Wind Dir Waves Ship Positions

Jacana

Owner: Jacana Yacht LLC, Woodhaven, NY. More information available from US FCC via Universal Licensing System and Coast Guard Vessel Documentation Center.

Last reported at 2017-Dec-10 04:35 UTC. Time now 2017-Dec-12 10:34 UTC.
Position N 40°44' W 073°58'.

Length 20 m.

Type: Passenger vessel. MMSI: 367528810.

Date/timePositionNaut miles runAvg speedWind from/ knotsBaromVisibWave heightAir tempDewpointWater temp
2017-Dec-10 04:35N 40°44' W 073°58'0 0.1
2017-Dec-10 04:29N 40°44' W 073°58'0 0.0
2017-Dec-10 04:00N 40°44' W 073°58'0 0.4
2017-Dec-10 03:30N 40°44' W 073°58'3 6.2
2017-Dec-10 03:00N 40°42' W 074°01'1 2.5
2017-Dec-10 02:30N 40°42' W 074°02'3 5.6
2017-Dec-10 02:00N 40°44' W 074°01'1 2.7
2017-Dec-10 01:30N 40°43' W 074°01'1 2.3
2017-Dec-10 01:00N 40°42' W 073°60'2 4.0
2017-Dec-10 00:30N 40°44' W 073°58'0 0.0
2017-Dec-10 00:00N 40°44' W 073°58'0 0.0
2017-Dec-09 23:29N 40°44' W 073°58'  
2017-Dec-07 03:28N 40°44' W 073°58'1 2.5
2017-Dec-07 03:00N 40°43' W 073°58'1 1.9
2017-Dec-07 02:31N 40°42' W 073°59'3 5.5
2017-Dec-07 02:00N 40°41' W 074°03'2 3.0
2017-Dec-07 01:31N 40°43' W 074°02'1 2.6
2017-Dec-07 01:00N 40°42' W 074°00'2 3.2
2017-Dec-07 00:31N 40°43' W 073°58'1 2.3
2017-Dec-07 00:01N 40°44' W 073°58'0 0.0
2017-Dec-06 23:31N 40°44' W 073°58'0 0.0
2017-Dec-06 23:01N 40°44' W 073°58'  
2017-Dec-03 20:30N 40°44' W 073°58'0 0.0
2017-Dec-03 20:01N 40°44' W 073°58'1 2.4
2017-Dec-03 19:30N 40°43' W 073°58'2 4.2
2017-Dec-03 19:00N 40°42' W 074°01'1 1.7
2017-Dec-03 18:30N 40°42' W 074°02'0 0.9
2017-Dec-03 18:00N 40°41' W 074°02'4 7.5
2017-Dec-03 17:30N 40°44' W 073°58'0 0.0
2017-Dec-03 17:00N 40°44' W 073°58'0 0.0
2017-Dec-03 16:31N 40°44' W 073°58'0 0.0
2017-Dec-03 16:00N 40°44' W 073°58'0 0.0
2017-Dec-03 15:30N 40°44' W 073°58'0 0.0
2017-Dec-03 04:02N 40°44' W 073°58'0 0.0
2017-Dec-03 04:00N 40°44' W 073°58'0 0.0
2017-Dec-03 03:31N 40°44' W 073°58'1 2.5
2017-Dec-03 03:00N 40°43' W 073°58'2 4.2
2017-Dec-03 02:31N 40°42' W 074°01'1 2.2
2017-Dec-03 02:01N 40°42' W 074°02'0 0.8
2017-Dec-03 01:30N 40°41' W 074°03'3 5.4
2017-Dec-03 01:01N 40°43' W 073°59'2 3.5
2017-Dec-03 00:30N 40°44' W 073°58'0 0.0
2017-Dec-03 00:00N 40°44' W 073°58'0 0.0
2017-Dec-02 23:30N 40°44' W 073°58'  

Dump ship's entire track history